Time;durP1;ratioP1;P1;durP2;ratioP2;P2;SDS_P1;SDS_P2;PMS_P1;PMS_P2;Temp;Humidity;BMP_temperature;BMP_pressure;BME280_temperature;BME280_humidity;BME280_pressure;Samples;Min_cycle;Max_cycle;Signal;HPM_P1;HPM_P2
2021/09/12 00:01:52;;;;;;;5.40;4.90;;;18.00;99.90;;;;;;5092245;28;20519;-61
2021/09/12 00:04:19;;;;;;;5.87;5.27;;;18.00;99.90;;;;;;5079149;28;20953;-60
2021/09/12 00:06:47;;;;;;;6.30;5.10;;;18.00;99.90;;;;;;5087504;28;21016;-61
2021/09/12 00:09:14;;;;;;;7.47;5.30;;;18.00;99.90;;;;;;5092277;28;20457;-61
2021/09/12 00:11:41;;;;;;;8.47;5.53;;;18.00;99.90;;;;;;5091743;28;20469;-60
2021/09/12 00:14:10;;;;;;;7.27;6.00;;;18.00;99.90;;;;;;5088843;28;20450;-60
2021/09/12 00:16:37;;;;;;;7.77;5.90;;;17.90;99.90;;;;;;5092095;28;20480;-60
2021/09/12 00:19:04;;;;;;;7.10;6.10;;;17.90;99.90;;;;;;5091755;28;20578;-60
2021/09/12 00:21:31;;;;;;;8.17;6.87;;;17.90;99.90;;;;;;5071466;28;20999;-61
2021/09/12 00:23:58;;;;;;;8.13;6.73;;;17.90;99.90;;;;;;5071772;28;20496;-61
2021/09/12 00:26:25;;;;;;;9.83;6.90;;;17.90;99.90;;;;;;5071867;28;20446;-61
2021/09/12 00:28:52;;;;;;;8.00;6.67;;;17.80;99.90;;;;;;5071854;28;20482;-60
2021/09/12 00:31:20;;;;;;;9.00;7.40;;;17.80;99.90;;;;;;5071551;28;20462;-60
2021/09/12 00:33:47;;;;;;;12.33;6.43;;;17.80;99.90;;;;;;5085498;28;20454;-61
2021/09/12 00:36:14;;;;;;;7.10;6.27;;;17.70;99.90;;;;;;5088628;28;20902;-60
2021/09/12 00:38:41;;;;;;;6.20;5.30;;;17.70;99.90;;;;;;5071526;28;20476;-60
2021/09/12 00:41:08;;;;;;;12.30;6.60;;;17.80;99.90;;;;;;5086579;28;20893;-60
2021/09/12 00:43:35;;;;;;;9.23;6.80;;;17.80;99.90;;;;;;5071831;28;21127;-60
2021/09/12 00:46:06;;;;;;;8.70;6.60;;;17.80;99.90;;;;;;5071758;28;20856;-60
2021/09/12 00:48:35;;;;;;;7.63;6.60;;;17.80;99.90;;;;;;5071528;28;20489;-60
2021/09/12 00:51:03;;;;;;;8.10;6.30;;;17.60;99.90;;;;;;5071091;28;20561;-60
2021/09/12 00:53:35;;;;;;;7.60;5.87;;;17.60;99.90;;;;;;5078247;28;20453;-60
2021/09/12 00:56:03;;;;;;;7.40;6.00;;;17.60;99.90;;;;;;5089721;28;20515;-59
2021/09/12 00:58:31;;;;;;;6.80;6.07;;;17.70;99.90;;;;;;5091570;28;20935;-60
2021/09/12 01:00:58;;;;;;;7.63;6.00;;;17.60;99.90;;;;;;5090614;28;20473;-60
2021/09/12 01:03:25;;;;;;;7.53;5.53;;;17.60;99.90;;;;;;5089884;28;20450;-60
2021/09/12 01:05:53;;;;;;;8.00;5.47;;;17.60;99.90;;;;;;5091450;28;20449;-59
2021/09/12 01:08:20;;;;;;;7.00;5.97;;;17.50;99.90;;;;;;5073066;28;20904;-60
2021/09/12 01:10:49;;;;;;;8.23;5.93;;;17.50;99.90;;;;;;5071029;28;21080;-60
2021/09/12 01:13:17;;;;;;;8.37;7.00;;;17.40;99.90;;;;;;5071455;28;20525;-59
2021/09/12 01:15:44;;;;;;;10.87;6.70;;;17.40;99.90;;;;;;5071833;28;20450;-61
2021/09/12 01:18:11;;;;;;;10.37;7.40;;;17.30;99.90;;;;;;5071403;28;20447;-59
2021/09/12 01:20:38;;;;;;;8.90;6.77;;;17.30;99.90;;;;;;5081074;28;20540;-59
2021/09/12 01:23:07;;;;;;;9.50;7.37;;;17.40;99.90;;;;;;5071405;28;20501;-59
2021/09/12 01:25:37;;;;;;;8.83;7.43;;;17.50;99.90;;;;;;5080789;28;20536;-59
2021/09/12 01:28:05;;;;;;;8.27;6.93;;;17.40;99.90;;;;;;5071027;28;20478;-60
2021/09/12 01:30:32;;;;;;;8.23;6.00;;;17.50;99.90;;;;;;5072447;28;20469;-60
2021/09/12 01:32:59;;;;;;;9.90;7.93;;;17.50;99.90;;;;;;5085129;28;20856;-60
2021/09/12 01:35:26;;;;;;;7.37;6.03;;;17.50;99.90;;;;;;5071244;28;20873;-60
2021/09/12 01:37:53;;;;;;;6.70;5.70;;;17.50;99.90;;;;;;5071212;28;20500;-60
2021/09/12 01:40:20;;;;;;;8.40;6.47;;;17.50;99.90;;;;;;5071889;28;20524;-59
2021/09/12 01:42:49;;;;;;;8.07;7.03;;;17.50;99.90;;;;;;5071224;28;20446;-60
2021/09/12 01:45:16;;;;;;;13.10;7.50;;;17.60;99.90;;;;;;5070938;28;20466;-59
2021/09/12 01:47:46;;;;;;;9.90;8.00;;;17.60;99.90;;;;;;5071834;28;20536;-59
2021/09/12 01:50:16;;;;;;;15.03;7.00;;;17.60;99.90;;;;;;5080182;28;20501;-60
2021/09/12 01:52:43;;;;;;;8.77;7.43;;;17.50;99.90;;;;;;5094046;28;20445;-59
2021/09/12 01:55:14;;;;;;;10.63;7.30;;;17.50;99.90;;;;;;5094744;28;21000;-60
2021/09/12 01:57:41;;;;;;;8.30;6.70;;;17.50;99.90;;;;;;5094762;28;20822;-60
2021/09/12 02:00:14;;;;;;;9.40;6.90;;;17.50;99.90;;;;;;5082111;28;21205;-59
2021/09/12 02:02:41;;;;;;;6.60;5.87;;;17.50;99.90;;;;;;5090995;28;20445;-60
2021/09/12 02:05:09;;;;;;;10.87;7.50;;;17.50;99.90;;;;;;5094356;28;20450;-60
2021/09/12 02:07:36;;;;;;;10.23;6.67;;;17.50;99.90;;;;;;5092774;28;20474;-59
2021/09/12 02:10:03;;;;;;;11.00;7.00;;;17.50;99.90;;;;;;5079013;28;20497;-60
2021/09/12 02:12:30;;;;;;;9.97;7.30;;;17.40;99.90;;;;;;5073973;28;20504;-59
2021/09/12 02:14:58;;;;;;;8.77;7.73;;;17.30;99.90;;;;;;5074360;28;20459;-59
2021/09/12 02:17:26;;;;;;;9.17;6.70;;;17.30;99.90;;;;;;5087338;28;20528;-59
2021/09/12 02:19:54;;;;;;;7.00;6.23;;;17.40;99.90;;;;;;5074216;28;20471;-59
2021/09/12 02:22:21;;;;;;;8.53;6.40;;;17.40;99.90;;;;;;5073861;28;20541;-59
2021/09/12 02:24:48;;;;;;;7.77;6.50;;;17.40;99.90;;;;;;5073926;28;20455;-59
2021/09/12 02:27:15;;;;;;;9.07;7.67;;;17.40;99.90;;;;;;5073800;28;20510;-59
2021/09/12 02:29:42;;;;;;;8.80;7.47;;;17.30;99.90;;;;;;5089819;28;20948;-59
2021/09/12 02:32:09;;;;;;;9.20;7.20;;;17.30;99.90;;;;;;5093274;28;20935;-59
2021/09/12 02:34:38;;;;;;;8.70;6.60;;;17.30;99.90;;;;;;5090401;28;20520;-59
2021/09/12 02:37:05;;;;;;;6.50;5.80;;;17.30;99.90;;;;;;5073663;28;20509;-60
2021/09/12 02:39:32;;;;;;;7.90;6.40;;;17.40;99.90;;;;;;5076370;28;20447;-59
2021/09/12 02:41:59;;;;;;;8.07;6.67;;;17.40;99.90;;;;;;5077490;28;20523;-60
2021/09/12 02:44:26;;;;;;;9.10;7.03;;;17.40;99.90;;;;;;5107339;28;20502;-59
2021/09/12 02:46:53;;;;;;;13.43;7.50;;;17.40;99.90;;;;;;5103570;28;20442;-59
2021/09/12 02:49:20;;;;;;;11.03;7.47;;;17.30;99.90;;;;;;5093860;28;20485;-59
2021/09/12 02:51:48;;;;;;;8.60;6.80;;;17.20;99.90;;;;;;5093471;28;20469;-59
2021/09/12 02:54:15;;;;;;;8.27;7.00;;;17.10;99.90;;;;;;5092775;28;20453;-60
2021/09/12 02:56:42;;;;;;;9.03;7.10;;;17.10;99.90;;;;;;5093225;28;20442;-60
2021/09/12 02:59:09;;;;;;;8.37;6.80;;;17.10;99.90;;;;;;5092689;28;20441;-59
2021/09/12 03:01:36;;;;;;;7.07;5.70;;;17.10;99.90;;;;;;5093070;28;20466;-59
2021/09/12 03:04:03;;;;;;;10.23;6.57;;;17.10;99.90;;;;;;5085249;28;20496;-60
2021/09/12 03:06:31;;;;;;;7.13;6.33;;;17.10;99.90;;;;;;5092784;28;20522;-59
2021/09/12 03:08:59;;;;;;;11.73;6.60;;;17.20;99.90;;;;;;5091845;28;20565;-59
2021/09/12 03:11:26;;;;;;;7.43;6.40;;;17.10;99.90;;;;;;5093340;28;20472;-59
2021/09/12 03:13:53;;;;;;;5.90;5.17;;;17.10;99.90;;;;;;5093454;28;20935;-59
2021/09/12 03:16:21;;;;;;;6.60;4.73;;;17.10;99.90;;;;;;5106269;28;20445;-60
2021/09/12 03:18:48;;;;;;;5.57;4.90;;;17.10;99.90;;;;;;5091659;27;20442;-60
2021/09/12 03:21:15;;;;;;;8.77;5.37;;;17.10;99.90;;;;;;5092137;28;20470;-60
2021/09/12 03:23:42;;;;;;;5.60;5.00;;;17.10;99.90;;;;;;5090061;28;20475;-60
2021/09/12 03:26:11;;;;;;;6.13;4.40;;;17.10;99.90;;;;;;5092815;28;20441;-60
2021/09/12 03:28:38;;;;;;;8.40;4.93;;;17.10;99.90;;;;;;5112439;28;20468;-59
2021/09/12 03:31:06;;;;;;;5.93;4.60;;;17.20;99.90;;;;;;5111706;28;20461;-59
2021/09/12 03:33:33;;;;;;;5.53;4.93;;;17.20;99.90;;;;;;5111991;28;20441;-59
2021/09/12 03:36:00;;;;;;;5.20;4.60;;;17.20;99.90;;;;;;5109290;28;20437;-59
2021/09/12 03:38:27;;;;;;;5.20;4.70;;;17.20;99.90;;;;;;5092641;28;20442;-59
2021/09/12 03:40:54;;;;;;;6.13;4.47;;;17.20;99.90;;;;;;5091867;28;20511;-60
2021/09/12 03:43:23;;;;;;;4.43;4.03;;;17.20;99.90;;;;;;5092910;28;20453;-59
2021/09/12 03:45:50;;;;;;;6.23;4.50;;;17.20;99.90;;;;;;5089753;28;20507;-60
2021/09/12 03:48:17;;;;;;;10.40;5.10;;;17.20;99.90;;;;;;5105817;28;21052;-59
2021/09/12 03:50:43;;;;;;;6.37;4.70;;;17.10;99.90;;;;;;5081614;28;20991;-59
2021/09/12 03:53:11;;;;;;;5.73;4.77;;;17.10;99.90;;;;;;5089155;28;20511;-59
2021/09/12 03:55:37;;;;;;;5.67;4.53;;;17.20;99.90;;;;;;5092650;28;20449;-59
2021/09/12 03:58:04;;;;;;;5.30;4.77;;;17.20;99.90;;;;;;5092423;28;20939;-59
2021/09/12 04:00:33;;;;;;;7.00;5.00;;;17.20;99.90;;;;;;5092154;28;20470;-59
2021/09/12 04:03:00;;;;;;;6.30;4.73;;;17.20;99.90;;;;;;5092309;28;21092;-60
2021/09/12 04:05:27;;;;;;;6.90;5.53;;;17.20;99.90;;;;;;5091191;28;20499;-59
2021/09/12 04:07:54;;;;;;;8.27;5.60;;;17.10;99.90;;;;;;5073942;28;20446;-60
2021/09/12 04:10:21;;;;;;;5.57;4.63;;;16.90;99.90;;;;;;5071809;28;20474;-59
2021/09/12 04:12:48;;;;;;;5.00;4.40;;;16.90;99.90;;;;;;5073160;28;20454;-59
2021/09/12 04:15:16;;;;;;;7.50;5.67;;;16.90;99.90;;;;;;5071398;28;20451;-59
2021/09/12 04:17:44;;;;;;;7.30;5.20;;;17.00;99.90;;;;;;5079568;28;20437;-59
2021/09/12 04:20:14;;;;;;;6.70;5.87;;;17.10;99.90;;;;;;5089232;28;20474;-59
2021/09/12 04:22:41;;;;;;;7.53;6.13;;;17.00;99.90;;;;;;5071599;28;20829;-59
2021/09/12 04:25:09;;;;;;;7.10;5.90;;;17.00;99.90;;;;;;5071593;28;20451;-59
2021/09/12 04:27:39;;;;;;;5.83;5.23;;;17.00;99.90;;;;;;5072753;28;20446;-60
2021/09/12 04:30:09;;;;;;;7.77;5.00;;;17.00;99.90;;;;;;5079278;28;20572;-59
2021/09/12 04:32:36;;;;;;;6.43;5.50;;;17.00;99.90;;;;;;5083937;28;20442;-59
2021/09/12 04:35:08;;;;;;;7.73;5.70;;;16.90;99.90;;;;;;5090924;28;21142;-59
2021/09/12 04:37:35;;;;;;;6.70;5.57;;;16.90;99.90;;;;;;5082606;28;20462;-60
2021/09/12 04:40:02;;;;;;;6.90;5.87;;;16.90;99.90;;;;;;5087112;28;20488;-60
2021/09/12 04:42:29;;;;;;;7.83;6.13;;;16.90;99.90;;;;;;5090870;28;20834;-59
2021/09/12 04:44:56;;;;;;;5.83;5.23;;;16.80;99.90;;;;;;5082614;28;20458;-59
2021/09/12 04:47:23;;;;;;;5.90;5.10;;;16.80;99.90;;;;;;5079385;28;20449;-59
2021/09/12 04:49:50;;;;;;;8.10;6.33;;;16.80;99.90;;;;;;5078826;28;20891;-58
2021/09/12 04:52:19;;;;;;;6.87;5.90;;;16.70;99.90;;;;;;5079710;28;20984;-59
2021/09/12 04:54:46;;;;;;;7.20;6.20;;;16.70;99.90;;;;;;5072493;28;20447;-59
2021/09/12 04:57:13;;;;;;;8.70;6.83;;;16.70;99.90;;;;;;5090447;28;20475;-59
2021/09/12 04:59:40;;;;;;;6.10;5.50;;;16.70;99.90;;;;;;5091698;28;20497;-59
2021/09/12 05:02:07;;;;;;;6.40;5.60;;;16.70;99.90;;;;;;5073936;28;20450;-60
2021/09/12 05:04:34;;;;;;;10.90;7.20;;;16.70;99.90;;;;;;5071343;28;20450;-59
2021/09/12 05:07:01;;;;;;;8.23;6.87;;;16.60;99.90;;;;;;5071235;28;20451;-59
2021/09/12 05:09:30;;;;;;;10.57;7.40;;;16.50;99.90;;;;;;5076483;28;20482;-60
2021/09/12 05:11:57;;;;;;;8.53;6.73;;;16.50;99.90;;;;;;5071082;28;20447;-59
2021/09/12 05:14:25;;;;;;;10.43;7.73;;;16.50;99.90;;;;;;5071069;28;20829;-59
2021/09/12 05:16:52;;;;;;;11.77;8.07;;;16.60;99.90;;;;;;5071265;28;20450;-60
2021/09/12 05:19:19;;;;;;;11.17;8.77;;;16.60;99.90;;;;;;5071332;28;20529;-60
2021/09/12 05:21:46;;;;;;;12.77;8.73;;;16.60;99.90;;;;;;5070854;28;20473;-59
2021/09/12 05:24:13;;;;;;;15.63;8.13;;;16.60;99.90;;;;;;5071975;28;20459;-60
2021/09/12 05:26:42;;;;;;;8.93;7.40;;;16.50;99.90;;;;;;5072821;28;20499;-60
2021/09/12 05:29:09;;;;;;;7.90;7.10;;;16.50;99.90;;;;;;5074704;28;20479;-60
2021/09/12 05:31:36;;;;;;;11.10;8.03;;;16.60;99.90;;;;;;5074697;28;20474;-59
2021/09/12 05:34:03;;;;;;;8.27;6.80;;;16.60;99.90;;;;;;5074744;28;20446;-60
2021/09/12 05:36:30;;;;;;;10.17;7.90;;;16.60;99.90;;;;;;5076376;28;20453;-59
2021/09/12 05:38:57;;;;;;;9.67;7.60;;;16.60;99.90;;;;;;5074769;28;20443;-60
2021/09/12 05:41:24;;;;;;;8.30;7.00;;;16.60;99.90;;;;;;5079000;28;20473;-60
2021/09/12 05:43:53;;;;;;;9.80;7.70;;;16.60;99.90;;;;;;5095047;28;20462;-60
2021/09/12 05:46:22;;;;;;;7.80;6.70;;;16.70;99.90;;;;;;5094877;28;21014;-59
2021/09/12 05:48:49;;;;;;;8.73;7.10;;;16.70;99.90;;;;;;5093646;28;20538;-60
2021/09/12 05:51:16;;;;;;;8.23;6.90;;;16.80;99.90;;;;;;5086937;28;20474;-59
2021/09/12 05:53:43;;;;;;;8.90;7.00;;;16.80;99.90;;;;;;5102419;28;20886;-59
2021/09/12 05:56:10;;;;;;;8.37;6.90;;;16.80;99.90;;;;;;5106704;28;20449;-59
2021/09/12 05:58:37;;;;;;;10.50;7.70;;;16.80;99.90;;;;;;5091642;28;20522;-60
2021/09/12 06:01:06;;;;;;;9.13;6.83;;;16.80;99.90;;;;;;5073011;28;20470;-58
2021/09/12 06:03:33;;;;;;;9.10;7.23;;;16.80;99.90;;;;;;5072565;28;20447;-59
2021/09/12 06:06:00;;;;;;;10.23;7.70;;;16.80;99.90;;;;;;5072355;28;20442;-59
2021/09/12 06:08:27;;;;;;;9.07;7.07;;;16.80;99.90;;;;;;5072383;28;20453;-59
2021/09/12 06:10:54;;;;;;;7.90;6.70;;;16.90;99.90;;;;;;5080588;28;20469;-60
2021/09/12 06:13:24;;;;;;;10.83;7.43;;;16.90;99.90;;;;;;5084167;28;20458;-60
2021/09/12 06:15:52;;;;;;;8.10;6.90;;;17.00;99.90;;;;;;5079452;28;20880;-60
2021/09/12 06:18:20;;;;;;;9.43;7.43;;;17.00;99.90;;;;;;5104576;28;20943;-59
2021/09/12 06:20:47;;;;;;;8.87;7.70;;;17.10;99.90;;;;;;5093960;28;20465;-59
2021/09/12 06:23:15;;;;;;;9.60;7.63;;;17.20;99.90;;;;;;5094021;28;20450;-60
2021/09/12 06:25:42;;;;;;;10.10;7.07;;;17.10;99.90;;;;;;5076411;28;20446;-60
2021/09/12 06:28:09;;;;;;;11.10;8.53;;;17.20;99.90;;;;;;5085645;28;20874;-60
2021/09/12 06:30:36;;;;;;;10.70;7.97;;;17.20;99.90;;;;;;5076198;28;21003;-60
2021/09/12 06:33:04;;;;;;;8.37;7.10;;;17.50;99.90;;;;;;5073711;28;20442;-60
2021/09/12 06:35:33;;;;;;;11.50;8.80;;;17.50;99.90;;;;;;5073402;28;20450;-60
2021/09/12 06:38:00;;;;;;;11.30;7.57;;;17.40;99.90;;;;;;5073027;28;21190;-59
2021/09/12 06:40:30;;;;;;;8.60;7.20;;;17.40;99.90;;;;;;5073358;28;20466;-59
2021/09/12 06:42:57;;;;;;;11.50;8.70;;;17.50;99.90;;;;;;5073870;28;20454;-59
2021/09/12 06:45:28;;;;;;;13.47;8.80;;;17.60;99.90;;;;;;5073326;28;20503;-61
2021/09/12 06:47:56;;;;;;;9.80;8.10;;;17.70;99.90;;;;;;5072646;28;20457;-60
2021/09/12 06:50:24;;;;;;;8.93;7.33;;;17.90;99.90;;;;;;5072547;28;20483;-59
2021/09/12 06:52:52;;;;;;;9.67;8.10;;;17.90;99.90;;;;;;5072978;28;20446;-59
2021/09/12 06:55:20;;;;;;;13.27;8.23;;;18.00;99.90;;;;;;5073842;28;20512;-59
2021/09/12 06:57:47;;;;;;;9.50;7.57;;;18.40;99.90;;;;;;5093385;28;20974;-60
2021/09/12 07:00:17;;;;;;;7.73;6.73;;;18.40;99.90;;;;;;5080769;28;20478;-60
2021/09/12 07:02:45;;;;;;;9.23;7.67;;;18.40;99.90;;;;;;5082604;28;20499;-60
2021/09/12 07:05:15;;;;;;;9.47;7.90;;;18.40;99.90;;;;;;5092761;28;20891;-60
2021/09/12 07:07:42;;;;;;;9.17;8.17;;;18.30;99.90;;;;;;5090011;28;20534;-60
2021/09/12 07:10:11;;;;;;;9.23;7.83;;;18.30;99.90;;;;;;5072737;28;20565;-61
2021/09/12 07:12:38;;;;;;;10.07;7.90;;;18.40;99.90;;;;;;5081806;28;20462;-60
2021/09/12 07:15:07;;;;;;;16.37;8.67;;;18.50;99.90;;;;;;5072778;28;20542;-59
2021/09/12 07:17:34;;;;;;;12.27;9.33;;;18.60;99.90;;;;;;5079663;28;20906;-59
2021/09/12 07:20:01;;;;;;;11.00;8.20;;;18.70;99.90;;;;;;5072328;28;20537;-59
2021/09/12 07:22:29;;;;;;;12.63;9.53;;;18.90;99.90;;;;;;5077424;28;20446;-61
2021/09/12 07:24:56;;;;;;;10.47;8.37;;;19.20;99.90;;;;;;5077391;28;20540;-61
2021/09/12 07:27:25;;;;;;;13.40;10.30;;;19.50;99.90;;;;;;5079344;28;20447;-61
2021/09/12 07:29:52;;;;;;;10.33;8.27;;;19.40;99.90;;;;;;5072008;28;20543;-62
2021/09/12 07:32:19;;;;;;;11.77;8.47;;;19.60;99.90;;;;;;5086064;28;21028;-63
2021/09/12 07:34:46;;;;;;;14.73;8.60;;;20.00;99.90;;;;;;5072187;28;20450;-62
2021/09/12 07:37:13;;;;;;;10.73;8.73;;;20.40;99.90;;;;;;5081538;28;20511;-61
2021/09/12 07:39:40;;;;;;;11.07;8.57;;;20.30;99.90;;;;;;5078343;28;20446;-62
2021/09/12 07:42:07;;;;;;;10.40;8.37;;;20.80;99.90;;;;;;5072009;28;20451;-62
2021/09/12 07:44:36;;;;;;;8.90;7.77;;;21.20;99.90;;;;;;5080762;28;20466;-61
2021/09/12 07:47:03;;;;;;;8.83;7.60;;;21.50;99.90;;;;;;5077810;28;20497;-61
2021/09/12 07:49:30;;;;;;;9.03;8.10;;;21.60;99.90;;;;;;5078070;28;20513;-61
2021/09/12 07:51:57;;;;;;;7.90;7.10;;;21.60;99.90;;;;;;5071726;28;20454;-60
2021/09/12 07:54:24;;;;;;;8.53;7.63;;;21.80;99.90;;;;;;5091542;28;20450;-61
2021/09/12 07:56:51;;;;;;;9.00;7.73;;;21.80;99.90;;;;;;5072207;28;20447;-60
2021/09/12 07:59:18;;;;;;;8.67;7.40;;;21.30;99.90;;;;;;5077990;28;20873;-61
2021/09/12 08:01:47;;;;;;;7.43;6.10;;;21.20;99.90;;;;;;5079892;28;21062;-61
2021/09/12 08:04:13;;;;;;;6.80;6.03;;;21.00;99.90;;;;;;5070750;28;20468;-60
2021/09/12 08:06:40;;;;;;;7.10;6.40;;;21.20;99.90;;;;;;5083466;28;20501;-60
2021/09/12 08:09:08;;;;;;;7.10;6.40;;;21.30;99.90;;;;;;5071792;28;20519;-61
2021/09/12 08:11:35;;;;;;;9.27;7.23;;;21.60;99.90;;;;;;5071320;28;20520;-62
2021/09/12 08:14:02;;;;;;;7.43;6.60;;;21.80;99.90;;;;;;5078593;28;20450;-61
2021/09/12 08:16:29;;;;;;;7.23;6.07;;;22.10;99.90;;;;;;5076818;28;20459;-62
2021/09/12 08:18:57;;;;;;;7.90;5.93;;;22.40;99.90;;;;;;5072800;28;20447;-61
2021/09/12 08:21:24;;;;;;;6.50;5.87;;;22.70;99.90;;;;;;5091411;28;20860;-61
2021/09/12 08:23:51;;;;;;;7.40;5.90;;;22.70;99.90;;;;;;5090335;28;20804;-61
2021/09/12 08:26:18;;;;;;;5.43;4.43;;;22.90;99.90;;;;;;5091896;28;20472;-61
2021/09/12 08:28:45;;;;;;;6.50;5.53;;;23.60;99.90;;;;;;5076878;28;20491;-61
2021/09/12 08:31:12;;;;;;;5.23;4.73;;;24.10;99.90;;;;;;5072791;28;21056;-60
2021/09/12 08:33:39;;;;;;;6.23;5.33;;;24.30;99.90;;;;;;5089447;28;20449;-61
2021/09/12 08:36:08;;;;;;;6.73;5.63;;;24.60;99.90;;;;;;5091043;28;20503;-61
2021/09/12 08:38:34;;;;;;;6.13;5.53;;;24.80;99.90;;;;;;5091805;28;20462;-61
2021/09/12 08:41:01;;;;;;;5.40;5.00;;;25.10;99.90;;;;;;5090552;28;20507;-62
2021/09/12 08:43:30;;;;;;;5.73;5.13;;;25.60;99.90;;;;;;5072027;28;20499;-61
2021/09/12 08:45:57;;;;;;;6.30;5.70;;;26.00;99.90;;;;;;5074290;28;20461;-60
2021/09/12 08:48:24;;;;;;;4.17;3.87;;;26.20;99.90;;;;;;5084070;28;20524;-61
2021/09/12 08:50:51;;;;;;;3.90;3.60;;;26.20;99.90;;;;;;5084147;28;20568;-60
2021/09/12 08:53:20;;;;;;;5.20;4.70;;;25.80;99.90;;;;;;5085602;28;20955;-62
2021/09/12 08:55:48;;;;;;;5.40;4.95;;;25.80;99.90;;;;;;5077007;28;20512;-63
2021/09/12 08:58:15;;;;;;;8.60;4.70;;;26.00;99.90;;;;;;5092538;28;20286;-62
2021/09/12 09:00:45;;;;;;;6.80;5.20;;;25.80;99.90;;;;;;5084333;28;20887;-62
2021/09/12 09:03:13;;;;;;;6.27;4.97;;;26.00;99.90;;;;;;5094141;28;20474;-61
2021/09/12 09:05:41;;;;;;;5.93;4.93;;;25.60;99.90;;;;;;5084518;28;20948;-61
2021/09/12 09:08:10;;;;;;;4.83;4.43;;;25.30;99.90;;;;;;5087951;28;20490;-61
2021/09/12 09:10:43;;;;;;;4.67;4.23;;;25.60;99.90;;;;;;5086782;28;20490;-62
2021/09/12 09:13:31;;;;;;;5.10;4.60;;;25.60;99.90;;;;;;5084241;28;20511;-61
2021/09/12 09:15:59;;;;;;;4.80;4.30;;;26.30;99.90;;;;;;5089884;28;20506;-61
2021/09/12 09:18:35;;;;;;;5.10;4.70;;;25.90;99.90;;;;;;5089175;28;20453;-62
2021/09/12 09:21:22;;;;;;;4.80;4.40;;;25.60;99.90;;;;;;5079299;28;20462;-62
2021/09/12 09:24:02;;;;;;;7.73;6.07;;;25.90;99.90;;;;;;5090643;28;20446;-61
2021/09/12 09:26:30;;;;;;;9.53;6.83;;;25.70;99.90;;;;;;5074944;28;20512;-62
2021/09/12 09:28:57;;;;;;;7.90;6.10;;;25.30;99.90;;;;;;5075087;28;20438;-60
2021/09/12 09:31:25;;;;;;;7.30;6.47;;;24.10;99.90;;;;;;5089594;28;20481;-61
2021/09/12 09:33:52;;;;;;;8.77;6.90;;;22.40;99.90;;;;;;5113911;28;20441;-61
2021/09/12 09:36:19;;;;;;;8.40;6.60;;;21.60;99.90;;;;;;5081023;28;20496;-61
2021/09/12 09:38:48;;;;;;;8.40;5.77;;;21.50;99.90;;;;;;5084459;28;20478;-61
2021/09/12 09:41:17;;;;;;;7.00;5.90;;;21.90;99.90;;;;;;5093114;28;20974;-61
2021/09/12 09:43:48;;;;;;;7.17;5.83;;;22.10;99.90;;;;;;5115286;28;20541;-61
2021/09/12 09:46:33;;;;;;;9.10;6.10;;;22.20;99.90;;;;;;5097874;28;20540;-62
2021/09/12 09:49:01;;;;;;;10.03;6.07;;;23.50;99.90;;;;;;5085679;28;20504;-61
2021/09/12 09:51:28;;;;;;;8.00;6.60;;;23.00;99.90;;;;;;5074157;28;20490;-61
2021/09/12 09:53:58;;;;;;;7.23;6.30;;;22.80;99.90;;;;;;5093632;28;20446;-61
2021/09/12 09:56:25;;;;;;;7.30;6.53;;;22.60;99.90;;;;;;5084470;28;20497;-61
2021/09/12 09:58:55;;;;;;;10.40;6.90;;;23.40;99.90;;;;;;5073558;28;20469;-61
2021/09/12 10:01:22;;;;;;;6.97;5.80;;;24.10;99.90;;;;;;5074015;28;20463;-61
2021/09/12 10:03:49;;;;;;;6.90;6.20;;;24.80;99.90;;;;;;5080038;28;20438;-61
2021/09/12 10:06:17;;;;;;;6.60;6.00;;;25.10;99.90;;;;;;5085142;28;20454;-61
2021/09/12 10:08:45;;;;;;;6.93;6.20;;;25.90;99.90;;;;;;5084716;28;20438;-61
2021/09/12 10:11:15;;;;;;;7.50;6.07;;;26.40;99.90;;;;;;5099843;28;20491;-61
2021/09/12 10:13:45;;;;;;;6.83;6.13;;;26.10;99.90;;;;;;5087589;28;20495;-61
2021/09/12 10:16:14;;;;;;;6.67;6.03;;;25.10;99.90;;;;;;5107532;28;20448;-61
2021/09/12 10:18:42;;;;;;;7.00;6.30;;;25.60;99.90;;;;;;5094474;28;20503;-61
2021/09/12 10:21:32;;;;;;;6.60;6.00;;;25.00;99.90;;;;;;5093601;28;20545;-61
2021/09/12 10:24:03;;;;;;;7.70;6.63;;;24.00;99.90;;;;;;5081719;28;20446;-61
2021/09/12 10:26:32;;;;;;;7.40;6.50;;;23.70;99.90;;;;;;5091597;28;20452;-61
2021/09/12 10:28:59;;;;;;;7.60;6.67;;;23.50;99.90;;;;;;5073892;28;20446;-61
2021/09/12 10:31:40;;;;;;;7.53;6.27;;;23.50;99.90;;;;;;5074674;28;20486;-60
2021/09/12 10:34:09;;;;;;;7.07;6.37;;;24.10;99.90;;;;;;5074771;28;20446;-61
2021/09/12 10:36:38;;;;;;;6.37;5.77;;;24.20;99.90;;;;;;5085386;28;20452;-60
2021/09/12 10:39:27;;;;;;;6.90;5.73;;;24.50;99.90;;;;;;5094573;28;20450;-61
2021/09/12 10:42:17;;;;;;;6.40;5.80;;;24.40;99.90;;;;;;5093455;28;20470;-60
2021/09/12 10:44:45;;;;;;;8.47;6.60;;;24.50;99.90;;;;;;5091735;28;20511;-61
2021/09/12 10:47:15;;;;;;;8.30;7.20;;;23.60;99.90;;;;;;5073605;28;20455;-61
2021/09/12 10:49:42;;;;;;;8.13;6.60;;;23.20;99.90;;;;;;5073471;28;20447;-61
2021/09/12 10:52:10;;;;;;;8.63;7.03;;;23.00;99.90;;;;;;5080144;28;20950;-60
2021/09/12 10:55:05;;;;;;;9.37;6.97;;;22.90;99.90;;;;;;5083209;28;20454;-59
2021/09/12 10:57:34;;;;;;;7.20;6.50;;;22.80;99.90;;;;;;5091789;28;20451;-60
2021/09/12 11:00:02;;;;;;;6.63;5.57;;;23.30;99.90;;;;;;5099068;28;20460;-60
2021/09/12 11:02:32;;;;;;;9.90;7.77;;;23.40;99.90;;;;;;5092919;28;20879;-59
2021/09/12 11:04:59;;;;;;;10.17;6.77;;;23.50;99.90;;;;;;5089268;28;20458;-59
2021/09/12 11:07:26;;;;;;;8.23;6.37;;;23.40;99.90;;;;;;5086002;28;20450;-60
2021/09/12 11:09:53;;;;;;;8.37;6.10;;;22.90;99.90;;;;;;5092328;28;20967;-60
2021/09/12 11:12:29;;;;;;;5.90;5.20;;;23.00;99.90;;;;;;5090203;28;21060;-60
2021/09/12 11:14:56;;;;;;;11.43;7.23;;;23.40;99.90;;;;;;5087605;28;20449;-60
2021/09/12 11:17:23;;;;;;;8.07;6.60;;;23.00;99.90;;;;;;5092554;28;20499;-59
2021/09/12 11:19:55;;;;;;;8.83;7.20;;;23.10;99.90;;;;;;5096642;28;20946;-61
2021/09/12 11:22:22;;;;;;;7.67;6.20;;;22.90;99.90;;;;;;5110878;28;20465;-61
2021/09/12 11:25:01;;;;;;;10.27;7.73;;;22.80;99.90;;;;;;5110344;28;20829;-62
2021/09/12 11:27:31;;;;;;;8.10;7.30;;;22.70;99.90;;;;;;5097169;28;20515;-60
2021/09/12 11:29:58;;;;;;;8.77;7.43;;;22.50;99.90;;;;;;5092141;28;20466;-59
2021/09/12 11:32:25;;;;;;;10.90;7.90;;;22.30;99.90;;;;;;5091784;28;20478;-60
2021/09/12 11:34:54;;;;;;;10.00;7.00;;;22.40;99.90;;;;;;5110974;28;20445;-60
2021/09/12 11:37:22;;;;;;;6.73;6.00;;;22.60;99.90;;;;;;5111009;27;20449;-60
2021/09/12 11:39:55;;;;;;;8.70;6.30;;;22.90;99.90;;;;;;5110691;28;20927;-60
2021/09/12 11:42:23;;;;;;;8.60;6.40;;;22.80;99.90;;;;;;5091057;28;20446;-60
2021/09/12 11:44:54;;;;;;;9.03;6.13;;;22.90;99.90;;;;;;5091684;28;20943;-60
2021/09/12 11:47:24;;;;;;;8.17;6.90;;;22.50;99.90;;;;;;5087171;28;20504;-59
2021/09/12 11:50:01;;;;;;;8.80;6.67;;;22.40;99.90;;;;;;5094055;28;20503;-59
2021/09/12 11:52:31;;;;;;;7.10;6.33;;;22.10;99.90;;;;;;5104012;28;20477;-60
2021/09/12 11:54:58;;;;;;;8.83;7.50;;;22.20;99.90;;;;;;5090009;28;20442;-60
2021/09/12 11:57:25;;;;;;;8.10;6.63;;;22.00;99.90;;;;;;5087684;28;20494;-59
2021/09/12 11:59:52;;;;;;;8.90;7.00;;;21.80;99.90;;;;;;5091088;28;20442;-60
2021/09/12 12:02:23;;;;;;;8.03;6.83;;;21.80;99.90;;;;;;5091654;28;20520;-59
2021/09/12 12:04:51;;;;;;;8.43;6.90;;;21.90;99.90;;;;;;5091852;28;20538;-60
2021/09/12 12:07:34;;;;;;;8.23;6.93;;;22.00;99.90;;;;;;5087242;28;20514;-60
2021/09/12 12:10:01;;;;;;;9.80;6.03;;;21.90;99.90;;;;;;5086754;28;20518;-60
2021/09/12 12:12:37;;;;;;;9.90;7.07;;;22.20;99.90;;;;;;5074843;28;20487;-60
2021/09/12 12:15:06;;;;;;;9.60;7.40;;;22.10;99.90;;;;;;5090938;28;20507;-60
2021/09/12 12:17:33;;;;;;;8.00;6.67;;;22.10;99.90;;;;;;5092194;28;20461;-60
2021/09/12 12:20:00;;;;;;;9.80;6.70;;;22.20;99.90;;;;;;5076188;28;20467;-60
2021/09/12 12:22:38;;;;;;;8.73;6.90;;;22.20;99.90;;;;;;5084926;28;20442;-59
2021/09/12 12:25:06;;;;;;;7.20;6.40;;;22.00;99.90;;;;;;5087435;28;20507;-60
2021/09/12 12:27:39;;;;;;;6.73;6.03;;;22.10;99.90;;;;;;5071514;28;20451;-61
2021/09/12 12:30:07;;;;;;;9.73;6.70;;;22.20;99.90;;;;;;5071584;28;20524;-61
2021/09/12 12:32:34;;;;;;;8.63;7.00;;;22.10;99.90;;;;;;5088325;28;20834;-61
2021/09/12 12:35:15;;;;;;;8.80;6.73;;;22.00;99.90;;;;;;5089720;28;20450;-62
2021/09/12 12:37:46;;;;;;;8.80;6.43;;;22.10;99.90;;;;;;5084544;28;21005;-61
2021/09/12 12:40:19;;;;;;;7.87;6.10;;;22.20;99.90;;;;;;5071406;28;20489;-61
2021/09/12 12:42:48;;;;;;;7.73;6.80;;;22.20;99.90;;;;;;5072415;28;20936;-61
2021/09/12 12:45:20;;;;;;;7.50;5.80;;;22.10;99.90;;;;;;5071252;28;20520;-61
2021/09/12 12:47:49;;;;;;;7.73;6.50;;;22.30;99.90;;;;;;5079999;28;20445;-62
2021/09/12 12:50:28;;;;;;;8.07;6.67;;;22.30;99.90;;;;;;5078828;28;20516;-61
2021/09/12 12:53:09;;;;;;;8.40;7.00;;;22.40;99.90;;;;;;5074981;28;20493;-61